createdAt,value
2023-03-11T00:00:18.279Z,55.91
2023-03-11T00:02:46.191Z,53.93
2023-03-11T00:05:25.583Z,55.34
2023-03-11T00:07:53.201Z,55.30
2023-03-11T00:10:27.992Z,54.68
2023-03-11T00:12:56.663Z,52.10
2023-03-11T00:15:23.605Z,53.01
2023-03-11T00:17:50.844Z,53.08
2023-03-11T00:20:24.441Z,51.17
2023-03-11T00:22:51.723Z,51.24
2023-03-11T00:25:19.194Z,50.44
2023-03-11T00:27:46.554Z,49.62
2023-03-11T00:30:14.385Z,50.08
2023-03-11T00:32:41.438Z,49.00
2023-03-11T00:35:09.123Z,51.36
2023-03-11T00:37:36.128Z,51.88
2023-03-11T00:40:07.922Z,49.92
2023-03-11T00:42:36.119Z,49.00
2023-03-11T00:45:03.419Z,49.57
2023-03-11T00:47:30.581Z,48.54
2023-03-11T00:49:57.590Z,48.78
2023-03-11T00:52:24.573Z,49.13
2023-03-11T00:54:51.585Z,49.42
2023-03-11T00:57:19.359Z,50.88
2023-03-11T00:59:46.544Z,50.64
2023-03-11T01:02:13.580Z,50.32
2023-03-11T01:04:40.726Z,48.95
2023-03-11T01:07:09.021Z,48.96
2023-03-11T01:09:37.654Z,50.58
2023-03-11T01:12:04.750Z,47.46
2023-03-11T01:14:32.208Z,47.02
2023-03-11T01:16:59.236Z,48.96
2023-03-11T01:19:26.356Z,49.36
2023-03-11T01:21:54.523Z,49.57
2023-03-11T01:24:21.760Z,49.37
2023-03-11T01:26:48.782Z,48.14
2023-03-11T01:29:15.793Z,49.76
2023-03-11T01:31:42.783Z,49.69
2023-03-11T01:34:09.980Z,49.90
2023-03-11T01:36:37.052Z,50.57
2023-03-11T01:39:04.314Z,49.22
2023-03-11T01:41:31.442Z,49.19
2023-03-11T01:43:58.935Z,49.40
2023-03-11T01:47:02.589Z,47.37
2023-03-11T01:49:32.944Z,47.82
2023-03-11T01:52:07.916Z,47.93
2023-03-11T01:54:40.942Z,47.18
2023-03-11T01:57:12.611Z,46.24
2023-03-11T01:59:42.184Z,48.54
2023-03-11T02:02:17.694Z,48.65
2023-03-11T02:04:44.727Z,49.21
2023-03-11T02:07:11.720Z,48.96
2023-03-11T02:09:38.759Z,47.68
2023-03-11T02:12:06.406Z,48.04
2023-03-11T02:14:33.841Z,49.04
2023-03-11T02:17:00.859Z,47.80
2023-03-11T02:19:56.485Z,47.72
2023-03-11T02:22:24.347Z,47.25
2023-03-11T02:24:57.561Z,47.18
2023-03-11T02:27:25.168Z,50.47
2023-03-11T02:29:52.314Z,49.81
2023-03-11T02:32:20.047Z,48.81
2023-03-11T02:34:47.506Z,50.15
2023-03-11T02:37:16.220Z,49.59
2023-03-11T02:39:50.734Z,49.69
2023-03-11T02:42:19.811Z,52.37
2023-03-11T02:44:49.570Z,50.93
2023-03-11T02:47:16.883Z,51.00
2023-03-11T02:49:43.913Z,49.90
2023-03-11T02:52:11.232Z,48.91
2023-03-11T02:54:38.260Z,49.27
2023-03-11T02:57:06.436Z,48.45
2023-03-11T02:59:33.470Z,48.21
2023-03-11T03:02:02.059Z,48.86
2023-03-11T03:04:29.719Z,49.75
2023-03-11T03:06:58.908Z,48.43
2023-03-11T03:09:25.930Z,48.59
2023-03-11T03:11:52.954Z,48.30
2023-03-11T03:14:19.961Z,48.10
2023-03-11T03:16:47.041Z,48.70
2023-03-11T03:19:14.188Z,49.68
2023-03-11T03:21:41.531Z,48.56
2023-03-11T03:24:08.842Z,47.82
2023-03-11T03:26:36.916Z,48.61
2023-03-11T03:29:05.023Z,50.61
2023-03-11T03:31:32.438Z,50.10
2023-03-11T03:34:01.050Z,51.57
2023-03-11T03:36:28.300Z,50.88
2023-03-11T03:39:01.662Z,51.99
2023-03-11T03:41:32.886Z,54.21
2023-03-11T03:43:59.950Z,54.88
2023-03-11T03:46:27.699Z,52.40
2023-03-11T03:48:58.471Z,53.92
2023-03-11T03:51:26.286Z,53.41
2023-03-11T03:54:04.951Z,53.23
2023-03-11T03:56:32.056Z,52.17
2023-03-11T03:59:00.057Z,52.94
2023-03-11T04:01:33.109Z,52.34
2023-03-11T04:04:00.392Z,52.79
2023-03-11T04:06:28.108Z,51.14
2023-03-11T04:09:02.797Z,49.48
2023-03-11T04:11:33.098Z,49.94
2023-03-11T04:14:02.690Z,49.61
2023-03-11T04:16:31.619Z,48.38
2023-03-11T04:19:06.169Z,47.53
2023-03-11T04:21:34.144Z,47.09
2023-03-11T04:24:02.146Z,46.24
2023-03-11T04:26:33.680Z,47.32
2023-03-11T04:29:01.186Z,46.66
2023-03-11T04:31:31.003Z,46.95
2023-03-11T04:34:00.214Z,47.76
2023-03-11T04:36:27.310Z,46.36
2023-03-11T04:38:56.521Z,44.80
2023-03-11T04:41:24.109Z,47.21
2023-03-11T04:43:51.115Z,46.27
2023-03-11T04:46:18.385Z,45.11
2023-03-11T04:48:45.537Z,46.28
2023-03-11T04:51:13.124Z,49.43
2023-03-11T04:53:40.098Z,48.69
2023-03-11T04:56:07.375Z,47.43
2023-03-11T04:58:37.931Z,49.15
2023-03-11T05:01:05.169Z,48.76
2023-03-11T05:03:32.574Z,50.24
2023-03-11T05:06:00.421Z,49.54
2023-03-11T05:08:27.609Z,49.31
2023-03-11T05:10:54.825Z,49.88
2023-03-11T05:13:22.945Z,51.28
2023-03-11T05:15:52.224Z,50.67
2023-03-11T05:18:19.242Z,50.71
2023-03-11T05:20:48.020Z,51.17
2023-03-11T05:23:16.028Z,51.37
2023-03-11T05:25:43.085Z,53.44
2023-03-11T05:28:10.517Z,52.67
2023-03-11T05:30:42.378Z,51.69
2023-03-11T05:33:09.759Z,50.54
2023-03-11T05:35:37.201Z,51.66
2023-03-11T05:38:04.274Z,49.28
2023-03-11T05:40:31.431Z,49.66
2023-03-11T05:42:58.661Z,50.58
2023-03-11T05:45:27.887Z,49.80
2023-03-11T05:47:56.894Z,50.27
2023-03-11T05:50:24.755Z,49.18
2023-03-11T05:52:52.610Z,50.11
2023-03-11T05:55:21.292Z,50.61
2023-03-11T05:57:51.546Z,49.88
2023-03-11T06:00:20.658Z,51.11
2023-03-11T06:02:51.191Z,49.93
2023-03-11T06:05:20.921Z,49.87
2023-03-11T06:07:50.278Z,49.99
2023-03-11T06:10:18.938Z,48.55
2023-03-11T06:12:47.782Z,49.31
2023-03-11T06:15:37.704Z,48.91
2023-03-11T06:18:05.646Z,49.55
2023-03-11T06:20:34.000Z,50.49
2023-03-11T06:23:01.137Z,48.17
2023-03-11T06:25:28.605Z,50.34
2023-03-11T06:27:55.676Z,49.83
2023-03-11T06:30:24.514Z,51.08
2023-03-11T06:33:09.185Z,50.27
2023-03-11T06:35:37.055Z,50.13
2023-03-11T06:38:04.532Z,49.57
2023-03-11T06:40:31.784Z,48.88
2023-03-11T06:43:00.157Z,49.14
2023-03-11T06:45:31.575Z,48.10
2023-03-11T06:47:58.773Z,49.32
2023-03-11T06:50:26.263Z,48.69
2023-03-11T06:52:55.116Z,47.97
2023-03-11T06:55:23.273Z,48.66
2023-03-11T06:57:50.448Z,48.86
2023-03-11T07:00:18.683Z,47.58
2023-03-11T07:02:51.341Z,47.91
2023-03-11T07:05:18.355Z,48.53
2023-03-11T07:07:49.050Z,50.97
2023-03-11T07:10:16.793Z,49.00
2023-03-11T07:12:44.620Z,48.77
2023-03-11T07:15:12.136Z,48.43
2023-03-11T07:17:39.859Z,47.72
2023-03-11T07:20:08.004Z,48.34
2023-03-11T07:22:35.924Z,47.83
2023-03-11T07:25:02.990Z,48.02
2023-03-11T07:27:30.036Z,46.86
2023-03-11T07:29:57.418Z,46.38
2023-03-11T07:32:24.926Z,48.87
2023-03-11T07:34:52.015Z,47.80
2023-03-11T07:37:19.154Z,47.75
2023-03-11T07:39:48.109Z,46.81
2023-03-11T07:42:15.176Z,46.15
2023-03-11T07:44:42.447Z,48.03
2023-03-11T07:47:09.484Z,47.74
2023-03-11T07:49:37.516Z,47.37
2023-03-11T07:52:04.766Z,47.50
2023-03-11T07:54:34.306Z,47.52
2023-03-11T07:57:03.860Z,47.46
2023-03-11T07:59:33.708Z,47.41
2023-03-11T08:02:00.848Z,47.03
2023-03-11T08:04:28.561Z,48.36
2023-03-11T08:06:55.598Z,49.63
2023-03-11T08:09:24.022Z,48.29
2023-03-11T08:11:51.389Z,49.65
2023-03-11T08:14:18.956Z,49.43
2023-03-11T08:16:46.226Z,48.80
2023-03-11T08:19:13.276Z,48.71
2023-03-11T08:21:40.271Z,48.67
2023-03-11T08:24:07.792Z,49.53
2023-03-11T08:26:36.103Z,50.03
2023-03-11T08:29:03.218Z,49.42
2023-03-11T08:31:33.002Z,49.06
2023-03-11T08:34:01.957Z,48.42
2023-03-11T08:36:29.819Z,48.04
2023-03-11T08:38:56.951Z,45.79
2023-03-11T08:41:26.281Z,47.58
2023-03-11T08:43:53.430Z,46.79
2023-03-11T08:46:32.080Z,46.51
2023-03-11T08:49:00.993Z,47.28
2023-03-11T08:51:28.580Z,46.61
2023-03-11T08:53:55.669Z,45.72
2023-03-11T08:56:23.829Z,45.33
2023-03-11T08:58:51.081Z,45.34
2023-03-11T09:01:18.492Z,48.23
2023-03-11T09:03:45.585Z,46.72
2023-03-11T09:06:15.562Z,45.87
2023-03-11T09:08:43.479Z,45.59
2023-03-11T09:11:10.609Z,46.17
2023-03-11T09:13:39.503Z,46.29
2023-03-11T09:16:08.316Z,45.99
2023-03-11T09:18:35.311Z,46.27
2023-03-11T09:21:02.523Z,45.38
2023-03-11T09:23:29.833Z,46.18
2023-03-11T09:25:56.834Z,47.62
2023-03-11T09:28:23.937Z,47.15
2023-03-11T09:30:51.036Z,48.12
2023-03-11T09:33:18.113Z,48.88
2023-03-11T09:35:45.274Z,47.93
2023-03-11T09:38:12.206Z,47.32
2023-03-11T09:41:10.424Z,46.04
2023-03-11T09:44:13.045Z,44.85
2023-03-11T09:47:05.330Z,45.74
2023-03-11T09:50:06.622Z,44.15
2023-03-11T09:52:38.884Z,43.41
2023-03-11T09:55:06.467Z,43.04
2023-03-11T09:57:34.058Z,43.45
2023-03-11T10:00:02.081Z,43.34
2023-03-11T10:02:39.603Z,42.94
2023-03-11T10:05:28.526Z,41.50
2023-03-11T10:08:02.850Z,42.70
2023-03-11T10:10:33.207Z,41.54
2023-03-11T10:13:18.385Z,44.21
2023-03-11T10:15:48.493Z,42.51
2023-03-11T10:18:31.037Z,43.24
2023-03-11T10:21:20.027Z,42.30
2023-03-11T10:24:25.863Z,42.67
2023-03-11T10:26:55.154Z,41.13
2023-03-11T10:29:26.528Z,41.04
2023-03-11T10:32:06.609Z,40.30
2023-03-11T10:34:37.351Z,39.27
2023-03-11T10:37:18.847Z,40.49
2023-03-11T10:39:48.201Z,41.20
2023-03-11T10:42:17.145Z,40.73
2023-03-11T10:44:44.310Z,40.52
2023-03-11T10:47:18.249Z,39.26
2023-03-11T10:49:45.351Z,38.91
2023-03-11T10:52:13.039Z,39.79
2023-03-11T10:54:46.262Z,39.33
2023-03-11T10:57:27.800Z,39.24
2023-03-11T10:59:59.366Z,40.82
2023-03-11T11:02:32.594Z,40.88
2023-03-11T11:05:22.678Z,39.32
2023-03-11T11:07:50.493Z,39.90
2023-03-11T11:10:21.738Z,38.77
2023-03-11T11:13:08.677Z,37.12
2023-03-11T11:15:36.310Z,38.50
2023-03-11T11:18:07.680Z,41.09
2023-03-11T11:20:35.050Z,39.61
2023-03-11T11:23:02.541Z,40.39
2023-03-11T11:25:37.554Z,40.19
2023-03-11T11:28:16.898Z,39.59
2023-03-11T11:30:56.150Z,40.64
2023-03-11T11:33:28.949Z,39.86
2023-03-11T11:36:05.515Z,39.42
2023-03-11T11:38:32.964Z,39.63
2023-03-11T11:41:02.054Z,40.58
2023-03-11T11:43:50.542Z,40.89
2023-03-11T11:46:38.793Z,39.73
2023-03-11T11:49:26.102Z,38.99
2023-03-11T11:52:11.785Z,37.90
2023-03-11T11:54:59.353Z,40.46
2023-03-11T11:57:26.364Z,40.77
2023-03-11T11:59:57.373Z,39.58
2023-03-11T12:03:04.326Z,39.59
2023-03-11T12:05:35.285Z,39.10
2023-03-11T12:08:18.198Z,37.37
2023-03-11T12:11:07.335Z,37.54
2023-03-11T12:13:52.101Z,38.23
2023-03-11T12:16:27.847Z,39.15
2023-03-11T12:19:00.492Z,38.71
2023-03-11T12:22:00.987Z,37.85
2023-03-11T12:25:00.652Z,37.76
2023-03-11T12:27:37.951Z,37.26
2023-03-11T12:30:18.900Z,37.46
2023-03-11T12:33:01.030Z,39.15
2023-03-11T12:35:32.550Z,38.36
2023-03-11T12:38:16.780Z,37.36
2023-03-11T12:40:49.123Z,37.29
2023-03-11T12:43:42.603Z,39.54
2023-03-11T12:46:13.623Z,39.54
2023-03-11T12:48:47.437Z,40.37
2023-03-11T12:51:26.714Z,38.35
2023-03-11T12:53:54.442Z,37.41
2023-03-11T12:56:43.891Z,36.39
2023-03-11T12:59:29.589Z,38.37
2023-03-11T13:02:24.959Z,40.33
2023-03-11T13:05:00.168Z,39.46
2023-03-11T13:07:36.420Z,39.38
2023-03-11T13:10:19.115Z,40.39
2023-03-11T13:12:46.171Z,39.55
2023-03-11T13:15:19.998Z,38.25
2023-03-11T13:18:23.420Z,37.81
2023-03-11T13:21:27.415Z,37.57
2023-03-11T13:24:19.640Z,38.88
2023-03-11T13:27:11.533Z,37.56
2023-03-11T13:29:45.551Z,36.71
2023-03-11T13:32:28.142Z,37.45
2023-03-11T13:35:03.852Z,36.65
2023-03-11T13:37:38.256Z,35.64
2023-03-11T13:40:14.914Z,35.35
2023-03-11T13:42:50.758Z,35.94
2023-03-11T13:45:36.868Z,36.07
2023-03-11T13:48:07.772Z,37.05
2023-03-11T13:50:40.724Z,36.53
2023-03-11T13:53:26.192Z,37.06
2023-03-11T13:55:53.242Z,37.13
2023-03-11T13:58:25.047Z,35.98
2023-03-11T14:00:54.570Z,35.87
2023-03-11T14:03:25.562Z,34.95
2023-03-11T14:06:03.138Z,34.30
2023-03-11T14:08:32.174Z,35.79
2023-03-11T14:11:08.216Z,35.87
2023-03-11T14:13:48.343Z,37.14
2023-03-11T14:16:22.763Z,36.81
2023-03-11T14:19:15.393Z,37.35
2023-03-11T14:21:44.464Z,36.22
2023-03-11T14:24:18.413Z,37.64
2023-03-11T14:26:45.550Z,38.18
2023-03-11T14:29:15.869Z,37.70
2023-03-11T14:31:46.738Z,37.61
2023-03-11T14:34:16.005Z,37.51
2023-03-11T14:36:49.703Z,38.21
2023-03-11T14:39:36.116Z,36.90
2023-03-11T14:42:03.268Z,36.80
2023-03-11T14:44:30.497Z,35.52
2023-03-11T14:47:24.053Z,35.93
2023-03-11T14:49:51.415Z,36.27
2023-03-11T14:52:25.679Z,35.88
2023-03-11T14:54:53.476Z,35.49
2023-03-11T14:57:25.220Z,35.20
2023-03-11T14:59:52.288Z,35.01
2023-03-11T15:02:26.615Z,35.79
2023-03-11T15:04:53.808Z,35.79
2023-03-11T15:07:20.805Z,35.14
2023-03-11T15:09:47.900Z,33.94
2023-03-11T15:12:32.313Z,34.42
2023-03-11T15:14:59.641Z,35.00
2023-03-11T15:17:37.803Z,35.66
2023-03-11T15:20:42.200Z,36.19
2023-03-11T15:23:20.996Z,35.47
2023-03-11T15:25:49.102Z,35.01
2023-03-11T15:28:27.457Z,36.97
2023-03-11T15:31:16.636Z,35.49
2023-03-11T15:33:43.747Z,35.45
2023-03-11T15:36:31.056Z,34.36
2023-03-11T15:39:15.885Z,34.29
2023-03-11T15:41:43.262Z,34.51
2023-03-11T15:44:36.482Z,34.67
2023-03-11T15:47:04.987Z,35.39
2023-03-11T15:49:32.110Z,36.84
2023-03-11T15:52:00.346Z,35.92
2023-03-11T15:54:27.672Z,34.84
2023-03-11T15:56:55.389Z,33.73
2023-03-11T15:59:23.995Z,34.20
2023-03-11T16:01:51.010Z,34.24
2023-03-11T16:04:18.893Z,34.30
2023-03-11T16:06:49.597Z,33.91
2023-03-11T16:09:21.052Z,33.16
2023-03-11T16:11:48.134Z,34.28
2023-03-11T16:14:17.298Z,34.08
2023-03-11T16:16:44.874Z,34.54
2023-03-11T16:19:12.112Z,35.70
2023-03-11T16:21:45.159Z,38.24
2023-03-11T16:24:30.564Z,38.81
2023-03-11T16:26:58.133Z,38.78
2023-03-11T16:29:27.419Z,39.50
2023-03-11T16:31:55.660Z,39.51
2023-03-11T16:34:24.081Z,41.34
2023-03-11T16:36:51.117Z,39.95
2023-03-11T16:39:18.266Z,39.49
2023-03-11T16:41:45.374Z,38.63
2023-03-11T16:44:12.468Z,38.55
2023-03-11T16:46:39.682Z,37.60
2023-03-11T16:49:07.020Z,38.33
2023-03-11T16:51:34.168Z,37.73
2023-03-11T16:54:01.180Z,36.61
2023-03-11T16:56:28.132Z,35.80
2023-03-11T16:58:55.134Z,35.76
2023-03-11T17:01:22.472Z,35.21
2023-03-11T17:03:50.972Z,35.25
2023-03-11T17:06:18.196Z,35.20
2023-03-11T17:08:49.019Z,35.01
2023-03-11T17:11:20.789Z,37.70
2023-03-11T17:13:48.208Z,36.79
2023-03-11T17:16:15.348Z,36.28
2023-03-11T17:18:42.445Z,35.88
2023-03-11T17:21:11.002Z,36.53
2023-03-11T17:23:37.931Z,36.27
2023-03-11T17:26:12.691Z,36.13
2023-03-11T17:28:40.189Z,35.58
2023-03-11T17:31:11.960Z,36.25
2023-03-11T17:33:39.045Z,36.19
2023-03-11T17:36:07.298Z,35.57
2023-03-11T17:38:34.325Z,35.39
2023-03-11T17:41:01.469Z,35.39
2023-03-11T17:43:28.529Z,34.39
2023-03-11T17:45:55.612Z,34.20
2023-03-11T17:48:22.834Z,34.59
2023-03-11T17:50:49.866Z,34.42
2023-03-11T17:53:17.062Z,34.69
2023-03-11T17:55:44.049Z,34.73
2023-03-11T17:58:11.134Z,34.78
2023-03-11T18:00:38.185Z,35.94
2023-03-11T18:03:05.224Z,34.86
2023-03-11T18:05:32.526Z,35.04
2023-03-11T18:08:01.976Z,35.34
2023-03-11T18:10:29.003Z,35.98
2023-03-11T18:12:55.975Z,35.51
2023-03-11T18:15:24.655Z,35.49
2023-03-11T18:17:51.958Z,35.47
2023-03-11T18:20:19.391Z,35.19
2023-03-11T18:22:47.371Z,35.71
2023-03-11T18:25:14.614Z,36.10
2023-03-11T18:27:41.717Z,36.34
2023-03-11T18:30:11.294Z,36.24
2023-03-11T18:33:02.994Z,36.36
2023-03-11T18:35:29.965Z,36.11
2023-03-11T18:37:56.925Z,36.09
2023-03-11T18:40:24.001Z,35.69
2023-03-11T18:42:53.813Z,35.53
2023-03-11T18:45:20.769Z,36.73
2023-03-11T18:47:47.908Z,36.79
2023-03-11T18:50:14.918Z,36.56
2023-03-11T18:52:42.010Z,36.79
2023-03-11T18:55:09.060Z,37.70
2023-03-11T18:57:36.269Z,37.81
2023-03-11T19:00:04.279Z,37.32
2023-03-11T19:02:31.288Z,36.96
2023-03-11T19:04:58.292Z,36.79
2023-03-11T19:07:25.636Z,37.08
2023-03-11T19:09:52.739Z,37.54
2023-03-11T19:12:19.840Z,37.48
2023-03-11T19:14:46.841Z,37.54
2023-03-11T19:17:16.511Z,37.83
2023-03-11T19:19:43.514Z,37.47
2023-03-11T19:22:10.520Z,37.96
2023-03-11T19:24:37.684Z,38.40
2023-03-11T19:27:04.812Z,38.30
2023-03-11T19:29:31.993Z,38.80
2023-03-11T19:31:59.008Z,38.53
2023-03-11T19:34:27.251Z,38.05
2023-03-11T19:36:54.590Z,37.76
2023-03-11T19:39:21.535Z,38.40
2023-03-11T19:41:48.538Z,39.68
2023-03-11T19:44:15.768Z,39.46
2023-03-11T19:46:43.103Z,39.78
2023-03-11T19:49:10.168Z,39.90
2023-03-11T19:51:49.139Z,39.95
2023-03-11T19:54:17.204Z,39.73
2023-03-11T19:56:44.437Z,40.77
2023-03-11T19:59:12.599Z,40.55
2023-03-11T20:01:39.820Z,40.29
2023-03-11T20:04:06.921Z,39.95
2023-03-11T20:06:34.170Z,39.69
2023-03-11T20:09:01.252Z,40.62
2023-03-11T20:11:28.318Z,39.17
2023-03-11T20:13:56.496Z,38.99
2023-03-11T20:16:23.511Z,39.28
2023-03-11T20:18:50.849Z,38.88
2023-03-11T20:21:17.893Z,39.03
2023-03-11T20:23:45.184Z,40.00
2023-03-11T20:26:13.555Z,40.58
2023-03-11T20:28:40.637Z,41.07
2023-03-11T20:31:15.607Z,40.48
2023-03-11T20:33:42.692Z,39.81
2023-03-11T20:36:11.465Z,39.87
2023-03-11T20:38:38.860Z,39.66
2023-03-11T20:41:08.163Z,39.75
2023-03-11T20:43:38.608Z,40.89
2023-03-11T20:46:06.351Z,42.02
2023-03-11T20:48:33.815Z,41.96
2023-03-11T20:51:02.180Z,42.71
2023-03-11T20:53:30.662Z,42.62
2023-03-11T20:55:59.235Z,42.22
2023-03-11T20:58:26.783Z,41.40
2023-03-11T21:00:54.145Z,41.44
2023-03-11T21:03:21.252Z,41.27
2023-03-11T21:05:48.697Z,40.68
2023-03-11T21:08:15.971Z,39.99
2023-03-11T21:10:43.173Z,40.53
2023-03-11T21:13:10.357Z,40.74
2023-03-11T21:15:37.611Z,41.77
2023-03-11T21:18:06.257Z,41.85
2023-03-11T21:20:33.310Z,42.21
2023-03-11T21:23:00.446Z,42.27
2023-03-11T21:25:28.610Z,42.37
2023-03-11T21:27:55.715Z,41.47
2023-03-11T21:30:22.899Z,41.41
2023-03-11T21:32:50.157Z,41.50
2023-03-11T21:35:17.206Z,41.41
2023-03-11T21:37:44.427Z,42.62
2023-03-11T21:40:12.467Z,41.92
2023-03-11T21:42:39.639Z,41.62
2023-03-11T21:45:07.207Z,41.81
2023-03-11T21:47:34.504Z,42.19
2023-03-11T21:50:01.671Z,42.77
2023-03-11T21:52:28.881Z,42.61
2023-03-11T21:54:56.598Z,42.32
2023-03-11T21:57:24.029Z,42.72
2023-03-11T21:59:51.100Z,43.15
2023-03-11T22:02:18.831Z,42.15
2023-03-11T22:04:46.161Z,42.67
2023-03-11T22:07:13.523Z,41.98
2023-03-11T22:09:40.472Z,42.39
2023-03-11T22:12:07.661Z,42.22
2023-03-11T22:14:34.806Z,42.25
2023-03-11T22:17:01.809Z,42.49
2023-03-11T22:19:29.012Z,42.55
2023-03-11T22:21:56.026Z,43.36
2023-03-11T22:24:22.985Z,43.43
2023-03-11T22:26:50.028Z,42.87
2023-03-11T22:29:16.999Z,42.62
2023-03-11T22:31:44.053Z,43.08
2023-03-11T22:34:11.148Z,42.21
2023-03-11T22:36:38.157Z,42.85
2023-03-11T22:39:05.129Z,42.41
2023-03-11T22:41:32.575Z,41.89
2023-03-11T22:43:59.536Z,41.56
2023-03-11T22:46:26.617Z,41.70
2023-03-11T22:48:53.719Z,41.82
2023-03-11T22:51:20.819Z,41.57
2023-03-11T22:53:47.948Z,41.75
2023-03-11T22:56:15.603Z,41.94
2023-03-11T22:58:42.831Z,42.55
2023-03-11T23:01:10.062Z,42.88
2023-03-11T23:03:37.324Z,42.79
2023-03-11T23:06:06.878Z,43.28
2023-03-11T23:08:34.187Z,42.86
2023-03-11T23:11:02.635Z,43.37
2023-03-11T23:13:30.850Z,42.49
2023-03-11T23:16:05.863Z,42.76
2023-03-11T23:18:33.139Z,42.85
2023-03-11T23:21:00.127Z,42.37
2023-03-11T23:23:27.062Z,42.12
2023-03-11T23:25:54.110Z,42.47
2023-03-11T23:28:21.271Z,42.79
2023-03-11T23:30:48.258Z,43.11
2023-03-11T23:33:15.194Z,43.04
2023-03-11T23:35:43.024Z,43.21
2023-03-11T23:38:10.213Z,43.41
2023-03-11T23:40:39.716Z,43.81
2023-03-11T23:43:06.877Z,44.03
2023-03-11T23:45:33.937Z,44.44
2023-03-11T23:48:00.935Z,43.29
2023-03-11T23:50:27.971Z,44.39
2023-03-11T23:52:54.912Z,44.92
2023-03-11T23:55:21.866Z,45.61
2023-03-11T23:57:48.858Z,45.39
